< Cyclone 198111 1981 Season Cyclone 198113 >
Cyclone 198112 (MAX)
General InformationTrack Information on Google MapsList of All Images || ResourceGoogle EarthGE AnimationAtom FeedGeoJSON
Detalied Best Track (Time Zone = UTC)
Year Month Day Hour Lat. Long. Pressure (hPa) Wind (kt) Class Image Chart
1981 3 9 20 -11.5 135.1 1007 0 0 Image --
1981 3 9 23 -11.5 135.0 1007 0 0 Image --
1981 3 10 02 -11.5 134.8 1006 0 0 Image --
1981 3 10 05 -11.4 134.5 1004 0 0 Image --
1981 3 10 08 -11.3 134.3 1002 0 0 Image --
1981 3 10 11 -11.3 134.1 1000 0 0 Image --
1981 3 10 14 -11.3 133.7 1000 0 0 Image --
1981 3 10 17 -11.4 133.4 998 0 0 Image --
1981 3 10 20 -11.4 133.2 998 0 0 Image --
1981 3 10 23 -11.4 133.0 998 0 0 Image --
1981 3 11 02 -11.4 132.8 998 0 0 Image --
1981 3 11 05 -11.6 132.5 998 0 0 Image --
1981 3 11 08 -11.8 132.2 996 0 0 Image --
1981 3 11 11 -11.8 131.8 994 0 0 Image --
1981 3 11 14 -11.8 131.5 994 0 0 Image --
1981 3 11 17 -12.1 131.0 993 0 0 Image --
1981 3 11 20 -12.2 130.8 993 0 0 Image --
1981 3 11 23 -12.3 130.5 992 0 0 Image --
1981 3 12 02 -12.3 130.2 990 0 0 Image --
1981 3 12 05 -12.5 129.7 985 0 0 Image --
1981 3 12 08 -12.7 129.3 985 0 0 Image --
1981 3 12 11 -12.7 128.8 985 0 0 Image --
1981 3 12 14 -12.8 128.3 980 0 0 Image --
1981 3 12 17 -12.8 127.8 980 0 0 Image --
1981 3 12 18 -12.8 127.6 980 0 0 Image --
1981 3 12 20 -12.8 127.3 980 0 0 Image --
1981 3 12 23 -12.8 126.9 975 0 0 Image --
1981 3 13 05 -12.7 125.9 975 0 0 Image --
1981 3 13 08 -12.6 125.5 975 0 0 Image --
1981 3 13 11 -12.4 125.3 970 0 0 Image --
1981 3 13 12 -12.2 125.3 969 0 0 Image --
1981 3 13 14 -12.3 125.0 970 0 0 Image --
1981 3 13 17 -12.1 124.5 967 0 0 Image --
1981 3 13 18 -12.1 124.5 967 0 0 Image --
1981 3 14 00 -12.0 123.4 965 0 0 Image --
1981 3 14 06 -11.9 122.5 963 0 0 Image --
1981 3 14 12 -11.9 121.4 962 0 0 Image --
1981 3 14 18 -12.0 120.1 961 0 0 Image --
1981 3 15 00 -12.3 118.9 960 0 0 Image --
1981 3 15 01 -12.4 118.8 960 0 0 Image --
1981 3 15 06 -12.6 118.1 961 0 0 Image --
1981 3 15 12 -12.9 117.2 962 0 0 Image --
1981 3 15 18 -13.3 116.4 963 0 0 Image --
1981 3 16 00 -13.7 115.4 965 0 0 Image --
1981 3 16 06 -14.3 114.5 967 0 0 Image --
1981 3 16 12 -14.7 113.5 969 0 0 Image --
1981 3 16 18 -15.1 112.5 972 0 0 Image --
1981 3 17 00 -15.3 111.5 975 0 0 Image --
1981 3 17 06 -15.5 110.4 978 0 0 Image --
1981 3 17 12 -15.5 109.2 982 0 0 Image --
1981 3 17 18 -15.6 107.7 987 0 0 Image --
1981 3 18 00 -15.9 106.2 995 0 0 Image --
1981 3 18 06 -16.2 104.4 1000 0 0 Image --
1981 3 18 12 -16.5 102.6 1003 0 0 Image --
1981 3 18 18 -16.7 100.7 1005 0 0 Image --
1981 3 19 00 -16.9 98.8 1006 0 0 Image --
< Cyclone 198111 1981 Season Cyclone 198113 >

Help